Time;durP1;ratioP1;P1;durP2;ratioP2;P2;SDS_P1;SDS_P2;PMS_P1;PMS_P2;Temp;Humidity;BMP_temperature;BMP_pressure;BME280_temperature;BME280_humidity;BME280_pressure;Samples;Min_cycle;Max_cycle;Signal;HPM_P1;HPM_P2
2023/10/13 00:02:10;;;;;;;0.63;0.63;;;16.50;1.00;;;;;;5067200;28;20122;-80
2023/10/13 00:04:37;;;;;;;0.20;0.20;;;16.50;1.00;;;;;;5100575;28;20051;-80
2023/10/13 00:07:08;;;;;;;0.20;0.20;;;16.50;1.00;;;;;;5100914;28;20035;-80
2023/10/13 00:09:39;;;;;;;0.95;0.20;;;16.50;1.00;;;;;;5066182;28;20450;-80
2023/10/13 00:12:13;;;;;;;0.10;0.10;;;16.40;1.00;;;;;;5100050;28;20443;-80
2023/10/13 00:14:41;;;;;;;0.20;0.20;;;16.40;1.00;;;;;;5068475;28;20501;-80
2023/10/13 00:17:10;;;;;;;0.10;0.10;;;16.40;1.00;;;;;;5083508;28;20058;-80
2023/10/13 00:19:44;;;;;;;0.20;0.20;;;16.40;1.00;;;;;;5067632;28;20043;-80
2023/10/13 00:22:12;;;;;;;0.20;0.20;;;16.40;1.00;;;;;;5068537;28;20043;-80
2023/10/13 00:24:43;;;;;;;0.20;0.20;;;16.40;1.00;;;;;;5081916;28;20224;-80
2023/10/13 00:27:29;;;;;;;0.20;0.20;;;16.40;1.00;;;;;;5067512;28;20124;-80
2023/10/13 00:30:22;;;;;;;0.10;0.10;;;16.40;1.00;;;;;;5101054;28;20047;-80
2023/10/13 00:32:56;;;;;;;0.20;0.20;;;16.40;1.00;;;;;;5071290;28;20055;-79
2023/10/13 00:35:36;;;;;;;0.10;0.10;;;16.40;1.00;;;;;;5068565;28;20543;-81
2023/10/13 00:38:04;;;;;;;0.20;0.20;;;16.40;1.00;;;;;;5084998;28;20565;-80
2023/10/13 00:45:56;;;;;;;0.20;0.20;;;16.40;1.00;;;;;;5104077;28;20051;-80
2023/10/13 00:48:33;;;;;;;0.30;0.30;;;16.30;1.00;;;;;;5088780;28;20134;-80
2023/10/13 00:51:02;;;;;;;0.20;0.20;;;16.30;1.00;;;;;;5070238;28;20530;-80
2023/10/13 00:53:33;;;;;;;0.20;0.20;;;16.30;1.00;;;;;;5103750;28;20117;-80
2023/10/13 00:56:07;;;;;;;0.20;0.20;;;16.30;1.00;;;;;;5086629;28;20079;-80
2023/10/13 00:58:34;;;;;;;0.65;0.22;;;16.30;1.00;;;;;;5071530;28;20044;-80
2023/10/13 01:01:17;;;;;;;0.20;0.20;;;16.40;1.00;;;;;;5067421;28;20125;-80
2023/10/13 01:03:55;;;;;;;0.20;0.20;;;16.40;1.00;;;;;;5087890;28;20138;-79
2023/10/13 01:06:25;;;;;;;0.28;0.28;;;16.40;1.00;;;;;;5069810;28;20386;-80
2023/10/13 01:11:55;;;;;;;0.20;0.20;;;16.40;1.00;;;;;;5100263;27;20051;-78
2023/10/13 01:14:27;;;;;;;0.13;0.13;;;16.50;1.00;;;;;;5086553;28;20039;-79
2023/10/13 01:16:55;;;;;;;0.20;0.20;;;16.50;1.00;;;;;;5100268;28;20043;-80
2023/10/13 01:19:27;;;;;;;0.10;0.10;;;16.50;1.00;;;;;;5103355;28;20076;-79
2023/10/13 01:22:12;;;;;;;0.20;0.20;;;16.50;1.00;;;;;;5088079;28;20047;-79
2023/10/13 01:24:39;;;;;;;0.20;0.20;;;16.60;1.00;;;;;;5088224;28;20439;-79
2023/10/13 01:27:20;;;;;;;0.10;0.10;;;16.60;1.00;;;;;;5069742;28;20048;-78
2023/10/13 01:29:48;;;;;;;0.30;0.30;;;16.60;1.00;;;;;;5088731;28;20471;-78
2023/10/13 01:32:19;;;;;;;0.90;0.32;;;16.70;1.00;;;;;;5095577;28;20308;-77
2023/10/13 01:34:48;;;;;;;0.75;0.50;;;16.70;1.60;;;;;;5100409;28;20059;-78
2023/10/13 01:37:16;;;;;;;0.88;0.45;;;16.70;1.00;;;;;;5072470;28;20044;-79
2023/10/13 01:39:47;;;;;;;1.60;0.68;;;16.70;1.00;;;;;;5071156;28;20048;-78
2023/10/13 01:42:19;;;;;;;1.17;0.70;;;16.60;1.00;;;;;;5083880;28;20036;-79
2023/10/13 01:44:46;;;;;;;1.23;0.73;;;16.50;1.00;;;;;;5069364;28;20101;-79
2023/10/13 01:47:13;;;;;;;1.60;0.80;;;16.50;1.00;;;;;;5103893;28;20040;-79
2023/10/13 01:49:46;;;;;;;1.48;1.00;;;16.40;1.00;;;;;;5068495;28;20105;-78
2023/10/13 01:52:17;;;;;;;1.40;0.90;;;16.40;1.00;;;;;;5068927;28;20050;-79
2023/10/13 01:54:44;;;;;;;2.15;1.00;;;16.30;1.00;;;;;;5071002;28;20047;-80
2023/10/13 01:57:17;;;;;;;1.50;1.10;;;16.20;1.00;;;;;;5087379;28;20051;-79
2023/10/13 01:59:45;;;;;;;1.98;1.10;;;16.20;1.00;;;;;;5088912;28;20048;-79
2023/10/13 02:02:15;;;;;;;1.15;0.80;;;16.10;1.00;;;;;;5088237;28;20399;-81
2023/10/13 02:05:00;;;;;;;1.27;0.90;;;16.00;1.00;;;;;;5087991;28;20091;-81
2023/10/13 02:07:34;;;;;;;1.67;1.10;;;16.00;7.30;;;;;;5076587;28;20065;-81
2023/10/13 02:10:05;;;;;;;1.23;0.82;;;16.00;11.20;;;;;;5087892;28;20100;-80
2023/10/13 02:12:42;;;;;;;0.85;0.70;;;16.00;47.60;;;;;;5088076;28;20097;-80
2023/10/13 02:15:12;;;;;;;1.00;0.90;;;16.00;46.10;;;;;;5104751;28;20082;-81
2023/10/13 02:17:42;;;;;;;1.13;0.80;;;16.00;47.10;;;;;;5071403;28;20112;-82
2023/10/13 02:20:15;;;;;;;0.50;0.50;;;16.00;54.70;;;;;;5088532;28;20077;-82
2023/10/13 02:22:51;;;;;;;1.75;1.30;;;16.00;50.40;;;;;;5104356;28;20047;-82
2023/10/13 02:25:35;;;;;;;1.42;0.90;;;16.00;33.80;;;;;;5087784;28;20055;-82
2023/10/13 02:28:07;;;;;;;1.50;1.10;;;16.00;44.70;;;;;;5075393;28;20082;-82
2023/10/13 02:30:44;;;;;;;1.15;0.98;;;16.00;32.00;;;;;;5088653;28;20060;-82
2023/10/13 02:33:12;;;;;;;0.88;0.70;;;16.00;26.40;;;;;;5086212;28;20040;-81
2023/10/13 02:35:50;;;;;;;0.90;0.65;;;16.00;18.10;;;;;;5071076;28;20059;-82
2023/10/13 02:38:26;;;;;;;0.55;0.55;;;16.00;13.00;;;;;;5085287;28;20086;-83
2023/10/13 02:40:54;;;;;;;1.30;0.90;;;16.00;7.30;;;;;;5088377;28;20066;-83
2023/10/13 02:43:22;;;;;;;0.93;0.70;;;16.00;1.00;;;;;;5087148;28;20096;-84
2023/10/13 02:45:58;;;;;;;1.00;0.73;;;16.00;1.00;;;;;;5100948;28;20086;-84
2023/10/13 02:48:46;;;;;;;1.83;1.02;;;16.00;1.00;;;;;;5088787;28;20097;-84
2023/10/13 02:51:16;;;;;;;1.60;1.00;;;16.00;1.00;;;;;;5090353;28;20050;-84
2023/10/13 02:53:49;;;;;;;1.98;1.00;;;16.00;1.00;;;;;;5104260;28;20120;-84
2023/10/13 02:56:20;;;;;;;1.80;1.30;;;16.00;1.00;;;;;;5071408;28;20120;-84
2023/10/13 02:58:56;;;;;;;1.73;1.17;;;16.00;1.00;;;;;;5084947;28;20050;-84
2023/10/13 03:01:27;;;;;;;1.42;1.20;;;16.00;1.00;;;;;;5089297;28;20040;-85
2023/10/13 03:03:55;;;;;;;1.98;1.00;;;16.10;1.00;;;;;;5087749;28;20097;-84
2023/10/13 03:06:34;;;;;;;1.67;1.35;;;16.10;1.00;;;;;;5105356;28;20051;-85
2023/10/13 03:09:17;;;;;;;2.10;1.35;;;16.10;1.00;;;;;;5089096;28;20099;-84
2023/10/13 03:11:48;;;;;;;1.48;1.10;;;16.10;1.00;;;;;;5089833;28;20050;-84
2023/10/13 03:14:27;;;;;;;2.00;1.33;;;16.20;1.00;;;;;;5084671;28;20324;-85
2023/10/13 03:19:36;;;;;;;2.58;1.55;;;16.20;1.00;;;;;;5088917;28;20124;-84
2023/10/13 03:22:16;;;;;;;3.13;1.50;;;16.30;1.00;;;;;;5073156;28;20467;-84
2023/10/13 03:24:49;;;;;;;3.33;1.40;;;16.30;1.00;;;;;;5073197;28;20237;-84
2023/10/13 03:27:23;;;;;;;1.27;1.17;;;16.30;1.00;;;;;;5088122;28;20047;-84
2023/10/13 03:29:57;;;;;;;1.40;1.30;;;16.40;1.00;;;;;;5085221;28;20055;-85
2023/10/13 03:32:26;;;;;;;2.38;1.55;;;16.40;1.00;;;;;;5087991;28;20055;-84
2023/10/13 03:37:39;;;;;;;2.90;1.58;;;16.50;1.00;;;;;;5100651;28;20161;-84
2023/10/13 03:43:09;;;;;;;2.85;1.42;;;16.60;1.00;;;;;;5085666;28;20075;-84
2023/10/13 03:45:44;;;;;;;1.90;1.20;;;16.70;1.00;;;;;;5086547;28;20058;-84
2023/10/13 03:51:03;;;;;;;3.15;1.77;;;16.70;1.00;;;;;;5104271;28;20047;-84
2023/10/13 03:53:34;;;;;;;2.85;2.03;;;16.70;1.00;;;;;;5088014;28;20148;-84
2023/10/13 03:56:26;;;;;;;2.17;1.60;;;16.80;1.00;;;;;;5086866;28;20109;-84
2023/10/13 03:59:00;;;;;;;2.13;1.58;;;16.80;1.00;;;;;;5091388;28;20058;-84
2023/10/13 04:04:29;;;;;;;1.55;1.30;;;16.90;1.00;;;;;;5099259;28;20183;-84
2023/10/13 04:17:28;;;;;;;1.92;1.00;;;17.10;99.90;;;;;;5091587;28;20071;-84
2023/10/13 04:36:16;;;;;;;3.10;1.90;;;17.30;99.90;;;;;;5089482;28;20448;-83
2023/10/13 04:41:22;;;;;;;2.60;1.80;;;17.40;84.70;;;;;;5088438;28;20039;-84
2023/10/13 04:43:55;;;;;;;3.47;1.83;;;17.40;31.60;;;;;;5088112;28;20039;-84
2023/10/13 04:46:39;;;;;;;1.92;1.50;;;17.40;1.00;;;;;;5088660;28;20069;-84
2023/10/13 04:49:27;;;;;;;2.08;1.60;;;17.40;1.00;;;;;;5072333;28;20498;-84
2023/10/13 04:52:01;;;;;;;3.92;2.10;;;17.50;1.00;;;;;;5075433;28;20052;-84
2023/10/13 06:30:05;;;;;;;4.60;2.17;;;18.60;99.90;;;;;;5100543;28;20597;-83
2023/10/13 06:32:33;;;;;;;4.32;1.77;;;18.70;99.90;;;;;;5078906;28;20043;-83
2023/10/13 06:35:07;;;;;;;4.30;2.17;;;18.70;99.90;;;;;;5062042;28;20440;-82
2023/10/13 06:37:34;;;;;;;4.10;2.00;;;18.80;1.00;;;;;;5070199;28;20055;-82
2023/10/13 06:40:06;;;;;;;4.15;2.13;;;18.80;1.00;;;;;;5082041;28;20055;-83
2023/10/13 06:42:42;;;;;;;3.20;1.83;;;18.80;1.00;;;;;;5068173;28;20054;-82
2023/10/13 06:45:12;;;;;;;2.50;1.90;;;18.90;1.00;;;;;;5089941;28;20044;-81
2023/10/13 06:47:44;;;;;;;5.85;2.90;;;19.00;99.90;;;;;;5062115;28;20460;-82
2023/10/13 06:50:19;;;;;;;;;;;19.10;52.30;;;;;;5098373;28;20157;-83
2023/10/13 06:52:54;;;;;;;3.55;2.25;;;19.10;99.90;;;;;;5085261;28;20078;-85
2023/10/13 06:55:28;;;;;;;4.50;2.65;;;19.20;99.90;;;;;;5088018;27;20048;-82
2023/10/13 06:57:59;;;;;;;4.68;2.38;;;19.20;1.00;;;;;;5082299;28;20044;-82
2023/10/13 07:00:34;;;;;;;4.22;2.35;;;19.20;1.00;;;;;;5085151;28;20059;-82
2023/10/13 07:03:09;;;;;;;5.50;2.65;;;19.20;1.00;;;;;;5086583;28;20078;-82
2023/10/13 07:05:41;;;;;;;4.38;2.10;;;19.20;99.90;;;;;;5085490;28;20067;-82
2023/10/13 07:08:08;;;;;;;4.00;2.28;;;19.10;99.90;;;;;;5071557;28;20058;-82
2023/10/13 07:10:51;;;;;;;4.07;2.08;;;19.10;99.90;;;;;;5066417;28;20067;-83
2023/10/13 07:13:19;;;;;;;3.43;1.93;;;19.10;1.00;;;;;;5082014;28;20052;-82
2023/10/13 07:15:47;;;;;;;3.45;1.92;;;19.00;99.90;;;;;;5073054;28;20078;-83
2023/10/13 07:18:22;;;;;;;3.63;2.22;;;19.00;99.90;;;;;;5088664;28;20047;-83
2023/10/13 07:20:49;;;;;;;4.60;2.17;;;19.00;1.00;;;;;;5105666;28;20055;-84
2023/10/13 07:23:20;;;;;;;3.88;2.10;;;19.00;99.90;;;;;;5091544;28;20036;-82
2023/10/13 07:26:02;;;;;;;2.95;1.88;;;19.10;99.90;;;;;;5077906;28;20054;-82
2023/10/13 07:28:36;;;;;;;4.55;2.17;;;19.10;89.70;;;;;;5073451;28;20059;-82
2023/10/13 07:33:31;;;;;;;5.70;2.78;;;19.20;99.90;;;;;;5104572;28;20440;-82
2023/10/13 07:36:11;;;;;;;3.72;2.20;;;19.30;99.90;;;;;;5066235;28;20457;-82
2023/10/13 07:38:38;;;;;;;2.55;1.80;;;19.30;99.90;;;;;;5087713;28;20087;-82
2023/10/13 07:41:09;;;;;;;3.35;2.08;;;19.40;1.00;;;;;;5083161;28;20051;-82
2023/10/13 07:43:39;;;;;;;2.97;2.35;;;19.50;99.90;;;;;;5083920;28;20047;-82
2023/10/13 07:46:12;;;;;;;3.88;2.00;;;19.50;99.90;;;;;;5068356;28;20070;-82
2023/10/13 07:48:45;;;;;;;5.57;2.20;;;19.60;1.00;;;;;;5098112;28;20055;-82
2023/10/13 07:51:18;;;;;;;3.88;2.35;;;19.70;1.00;;;;;;5063151;28;20052;-81
2023/10/13 07:53:49;;;;;;;3.90;2.00;;;19.70;98.10;;;;;;5084965;28;20461;-81
2023/10/13 07:56:18;;;;;;;3.25;2.00;;;19.60;1.00;;;;;;5080063;28;20070;-81
2023/10/13 07:59:01;;;;;;;3.85;2.65;;;19.60;99.90;;;;;;5062931;28;20115;-82
2023/10/13 08:01:32;;;;;;;3.45;2.13;;;19.50;99.90;;;;;;5081613;28;20039;-84
2023/10/13 08:04:11;;;;;;;3.13;2.28;;;19.50;1.00;;;;;;5066607;28;20047;-81
2023/10/13 08:06:43;;;;;;;3.33;2.33;;;19.50;99.90;;;;;;5088560;28;20720;-81
2023/10/13 08:09:40;;;;;;;4.90;2.45;;;19.50;99.90;;;;;;5103818;28;20059;-81
2023/10/13 08:11:57;;;;;;;3.20;2.30;;;19.40;1.00;;;;;;5090486;28;20055;-81
2023/10/13 08:14:29;;;;;;;3.63;2.38;;;19.40;99.90;;;;;;5070690;28;20440;-81
2023/10/13 08:17:12;;;;;;;4.28;2.83;;;19.40;99.90;;;;;;5089027;28;20047;-81
2023/10/13 08:19:39;;;;;;;4.18;2.55;;;19.40;99.90;;;;;;5099908;28;20137;-81
2023/10/13 08:22:23;;;;;;;2.75;1.90;;;19.30;99.90;;;;;;5095024;28;20167;-81
2023/10/13 08:32:54;;;;;;;4.88;2.80;;;19.10;99.90;;;;;;5077650;28;20070;-82
2023/10/13 08:35:54;;;;;;;3.65;2.50;;;19.00;99.90;;;;;;5100618;28;20169;-81
2023/10/13 08:38:14;;;;;;;3.72;3.20;;;18.90;12.80;;;;;;5082561;28;20055;-80
2023/10/13 08:43:50;;;;;;;4.93;2.65;;;18.80;15.50;;;;;;5097658;28;20056;-82
2023/10/13 08:46:29;;;;;;;4.88;3.47;;;18.60;1.00;;;;;;5065557;28;20047;-82
2023/10/13 08:49:15;;;;;;;4.07;3.33;;;18.50;99.90;;;;;;5075789;28;20047;-82
2023/10/13 08:51:49;;;;;;;3.95;2.67;;;18.30;1.00;;;;;;5081981;28;20068;-83
2023/10/13 08:54:33;;;;;;;3.20;2.70;;;18.20;99.90;;;;;;5083736;28;20170;-81
2023/10/13 08:57:19;;;;;;;4.13;2.17;;;18.10;99.90;;;;;;5079271;28;20059;-82
2023/10/13 08:59:53;;;;;;;3.58;2.20;;;18.10;99.90;;;;;;5085877;28;20123;-82
2023/10/13 09:02:59;;;;;;;3.63;2.78;;;18.00;99.90;;;;;;5082310;28;20050;-83
2023/10/13 09:07:55;;;;;;;2.50;1.95;;;18.00;99.90;;;;;;5091017;28;20452;-82
2023/10/13 09:10:49;;;;;;;4.28;2.33;;;18.00;1.00;;;;;;5078840;28;20138;-80
2023/10/13 09:13:20;;;;;;;3.78;2.42;;;18.00;1.00;;;;;;5089315;28;20040;-80
2023/10/13 09:16:00;;;;;;;4.05;2.35;;;18.00;99.90;;;;;;5065718;28;20554;-80
2023/10/13 09:18:46;;;;;;;3.38;2.70;;;17.90;1.00;;;;;;5101979;28;20068;-80
2023/10/13 09:27:04;;;;;;;4.03;2.35;;;17.80;99.90;;;;;;5050303;28;20056;-81
2023/10/13 09:29:38;;;;;;;3.78;2.45;;;17.80;99.90;;;;;;5079082;28;20059;-81
2023/10/13 09:32:11;;;;;;;3.85;2.72;;;17.90;99.90;;;;;;5072062;28;20067;-82
2023/10/13 09:34:44;;;;;;;3.25;2.03;;;17.90;99.90;;;;;;5076461;28;20134;-82
2023/10/13 09:37:15;;;;;;;;;;;17.90;1.00;;;;;;5092688;28;20056;-82
2023/10/13 09:39:46;;;;;;;3.25;2.22;;;17.90;1.00;;;;;;5106650;28;19923;-82
2023/10/13 09:42:13;;;;;;;4.93;2.70;;;17.90;1.00;;;;;;5091415;28;20100;-83
2023/10/13 09:44:50;;;;;;;4.60;2.67;;;17.90;1.00;;;;;;5107639;28;20289;-82
2023/10/13 09:47:36;;;;;;;2.40;1.70;;;18.00;77.30;;;;;;5092189;28;20047;-80
2023/10/13 09:50:05;;;;;;;3.38;2.42;;;17.90;99.90;;;;;;5087415;28;20044;-81
2023/10/13 09:52:33;;;;;;;3.45;2.25;;;18.00;99.90;;;;;;5090331;28;20071;-81
2023/10/13 09:55:13;;;;;;;3.53;2.30;;;17.90;99.90;;;;;;5089925;28;20074;-80
2023/10/13 09:57:44;;;;;;;2.28;2.00;;;17.90;99.90;;;;;;5075020;28;20052;-78
2023/10/13 10:02:58;;;;;;;2.75;1.77;;;17.90;99.90;;;;;;5104491;28;20460;-80
2023/10/13 10:05:25;;;;;;;1.92;1.65;;;17.90;99.90;;;;;;5103773;28;20078;-79
2023/10/13 10:07:58;;;;;;;1.98;1.50;;;17.90;1.00;;;;;;5072174;28;20507;-79
2023/10/13 10:10:56;;;;;;;2.20;1.77;;;17.90;1.00;;;;;;5089950;28;20135;-80
2023/10/13 10:13:35;;;;;;;3.63;2.20;;;17.90;1.00;;;;;;5089604;28;20295;-80
2023/10/13 10:16:14;;;;;;;2.22;1.65;;;17.90;99.90;;;;;;5074035;28;20048;-80
2023/10/13 10:18:42;;;;;;;3.35;2.20;;;18.00;99.90;;;;;;5074718;28;20048;-80
2023/10/13 10:21:10;;;;;;;2.85;1.70;;;18.00;1.00;;;;;;5090393;28;20051;-80
2023/10/13 10:23:39;;;;;;;2.53;2.05;;;18.10;99.90;;;;;;5106102;28;20052;-80
2023/10/13 10:26:32;;;;;;;1.60;1.50;;;18.00;1.00;;;;;;5086725;28;20043;-79
2023/10/13 10:29:07;;;;;;;2.22;1.60;;;18.10;1.00;;;;;;5105022;28;20043;-80
2023/10/13 10:31:44;;;;;;;2.83;1.80;;;18.10;99.90;;;;;;5090892;28;20104;-81
2023/10/13 10:34:18;;;;;;;1.77;1.63;;;18.20;99.90;;;;;;5107197;28;20121;-81
2023/10/13 10:36:54;;;;;;;2.25;1.80;;;18.20;99.90;;;;;;5106692;28;20043;-81
2023/10/13 10:39:33;;;;;;;1.95;1.40;;;18.20;99.90;;;;;;5072335;28;20135;-81
2023/10/13 10:42:15;;;;;;;3.25;1.90;;;18.20;99.90;;;;;;5091739;28;20044;-81
2023/10/13 10:44:47;;;;;;;2.30;1.67;;;18.30;99.90;;;;;;5089643;28;20055;-81
2023/10/13 10:47:38;;;;;;;2.53;1.77;;;18.30;99.90;;;;;;5090641;28;20592;-81
2023/10/13 10:50:19;;;;;;;2.33;1.60;;;18.40;99.90;;;;;;5092950;28;20105;-80
2023/10/13 10:52:46;;;;;;;2.17;1.70;;;18.40;99.90;;;;;;5091026;28;20055;-81
2023/10/13 10:55:14;;;;;;;2.40;1.58;;;18.40;99.90;;;;;;5088709;28;20051;-80
2023/10/13 10:57:43;;;;;;;1.90;1.30;;;18.40;99.90;;;;;;5085556;28;20082;-78
2023/10/13 11:00:20;;;;;;;1.98;1.40;;;18.60;99.90;;;;;;5067756;28;20047;-79
2023/10/13 11:02:57;;;;;;;2.67;1.55;;;18.60;99.90;;;;;;5069569;28;20215;-79
2023/10/13 11:05:32;;;;;;;1.60;1.30;;;18.70;99.90;;;;;;5099756;28;20046;-79
2023/10/13 11:07:59;;;;;;;2.33;1.33;;;18.90;53.40;;;;;;5071982;28;20043;-79
2023/10/13 11:10:29;;;;;;;1.58;1.27;;;19.00;1.00;;;;;;5071347;28;20047;-79
2023/10/13 11:13:11;;;;;;;2.10;1.30;;;19.20;99.90;;;;;;5070923;28;20048;-78
2023/10/13 11:15:44;;;;;;;2.15;1.40;;;19.30;99.90;;;;;;5090196;28;20104;-79
2023/10/13 11:18:21;;;;;;;2.92;1.52;;;19.50;99.90;;;;;;5088956;28;20491;-79
2023/10/13 11:20:54;;;;;;;1.77;1.05;;;19.50;1.00;;;;;;5090360;28;20131;-80
2023/10/13 11:23:27;;;;;;;;;;;19.50;14.90;;;;;;5088578;28;20047;-78
2023/10/13 11:25:59;;;;;;;1.20;1.10;;;19.50;99.90;;;;;;5085552;28;19965;-79
2023/10/13 11:28:29;;;;;;;2.30;1.50;;;19.60;99.90;;;;;;5086145;28;20040;-80
2023/10/13 11:30:58;;;;;;;1.80;1.17;;;19.70;99.90;;;;;;5089464;28;20055;-78
2023/10/13 11:33:28;;;;;;;4.40;2.35;;;19.90;99.90;;;;;;5105122;28;20047;-79
2023/10/13 11:35:55;;;;;;;3.53;1.80;;;20.00;44.10;;;;;;5088881;28;20044;-78
2023/10/13 11:38:27;;;;;;;3.72;2.58;;;20.10;1.00;;;;;;5104248;28;20134;-79
2023/10/13 11:46:13;;;;;;;3.55;2.22;;;20.60;1.00;;;;;;5102728;28;20080;-79
2023/10/13 11:48:46;;;;;;;3.25;1.88;;;20.70;1.00;;;;;;5073110;28;20079;-79
2023/10/13 11:51:26;;;;;;;4.30;2.03;;;20.70;99.90;;;;;;5071248;28;20047;-79
2023/10/13 11:53:53;;;;;;;3.20;1.88;;;20.70;93.70;;;;;;5101989;28;20051;-79
2023/10/13 11:56:24;;;;;;;2.95;1.92;;;20.60;21.80;;;;;;5103573;28;20308;-79
2023/10/13 11:58:51;;;;;;;2.95;2.15;;;20.50;1.00;;;;;;5102358;28;20140;-79
2023/10/13 12:06:47;;;;;;;6.03;2.50;;;20.50;99.90;;;;;;5099877;28;20116;-79
2023/10/13 12:11:50;;;;;;;5.13;1.95;;;20.50;99.90;;;;;;5087947;28;20122;-80
2023/10/13 12:14:21;;;;;;;4.45;2.25;;;20.60;99.90;;;;;;5083733;28;20048;-80
2023/10/13 12:16:50;;;;;;;2.30;1.50;;;20.60;99.90;;;;;;5082628;28;20043;-79
2023/10/13 12:19:18;;;;;;;2.95;1.50;;;20.70;83.80;;;;;;5086288;28;20051;-80
2023/10/13 12:21:47;;;;;;;2.92;1.58;;;20.90;67.30;;;;;;5088276;28;20096;-79
2023/10/13 12:26:59;;;;;;;5.90;1.80;;;20.80;1.00;;;;;;5086841;28;20100;-80
2023/10/13 12:29:29;;;;;;;3.80;1.52;;;20.70;1.90;;;;;;5084836;28;20075;-80
2023/10/13 12:32:07;;;;;;;4.50;1.70;;;20.70;1.00;;;;;;5072136;28;20124;-80
2023/10/13 12:38:04;;;;;;;3.60;1.90;;;20.70;1.00;;;;;;5093829;28;20043;-80
2023/10/13 12:52:00;;;;;;;5.88;1.77;;;21.00;1.00;;;;;;5106484;28;20055;-80
2023/10/13 12:54:20;;;;;;;3.88;1.63;;;21.00;1.00;;;;;;5074871;28;20051;-79
2023/10/13 12:56:47;;;;;;;3.90;1.65;;;20.90;1.00;;;;;;5103521;28;20149;-80
2023/10/13 12:59:14;;;;;;;3.17;1.58;;;20.90;1.00;;;;;;5066421;28;20052;-79
2023/10/13 13:01:44;;;;;;;3.45;1.55;;;21.00;1.00;;;;;;5085035;28;20402;-79
2023/10/13 13:04:20;;;;;;;3.20;1.70;;;21.40;1.00;;;;;;5085057;28;20044;-79
2023/10/13 13:06:48;;;;;;;3.40;1.48;;;21.50;1.00;;;;;;5107851;28;20051;-80
2023/10/13 13:09:15;;;;;;;2.22;1.20;;;21.50;1.00;;;;;;5089200;28;20047;-80
2023/10/13 13:11:42;;;;;;;2.70;1.45;;;21.50;1.00;;;;;;5085959;28;20167;-80
2023/10/13 13:14:09;;;;;;;2.22;1.13;;;21.50;1.00;;;;;;5087713;28;20431;-80
2023/10/13 13:16:38;;;;;;;4.20;1.50;;;21.50;1.00;;;;;;5079433;28;20155;-80
2023/10/13 13:19:14;;;;;;;3.15;1.27;;;21.20;1.00;;;;;;5080304;28;20049;-80
2023/10/13 13:21:41;;;;;;;2.28;1.23;;;21.20;1.00;;;;;;5075004;28;20112;-80
2023/10/13 13:24:13;;;;;;;2.95;1.30;;;21.00;1.00;;;;;;5086299;28;20630;-79
2023/10/13 13:26:40;;;;;;;2.05;1.17;;;21.00;1.00;;;;;;5084944;28;20047;-80
2023/10/13 13:29:10;;;;;;;2.65;1.10;;;21.10;1.00;;;;;;5068455;28;20059;-80
2023/10/13 13:31:44;;;;;;;2.55;1.30;;;21.30;1.00;;;;;;5097971;28;20044;-80
2023/10/13 13:34:12;;;;;;;1.13;0.80;;;21.40;1.00;;;;;;5098715;28;20051;-80
2023/10/13 13:36:44;;;;;;;2.58;1.20;;;21.40;1.00;;;;;;5090798;28;20066;-80
2023/10/13 13:39:11;;;;;;;2.22;0.90;;;22.10;1.00;;;;;;5086957;28;20044;-80
2023/10/13 13:41:38;;;;;;;2.05;1.27;;;22.60;1.00;;;;;;5071214;28;20199;-80
2023/10/13 13:44:14;;;;;;;4.88;1.50;;;23.00;1.00;;;;;;5089306;28;20359;-80
2023/10/13 13:46:42;;;;;;;3.78;1.27;;;23.20;1.00;;;;;;5083822;28;20051;-80
2023/10/13 13:49:18;;;;;;;3.00;1.10;;;22.70;1.00;;;;;;5068196;28;20040;-80
2023/10/13 13:51:51;;;;;;;2.30;1.10;;;22.50;1.00;;;;;;5077932;28;20101;-80
2023/10/13 13:54:19;;;;;;;2.05;0.75;;;22.60;1.00;;;;;;5074282;28;20083;-80
2023/10/13 13:56:47;;;;;;;2.80;1.52;;;22.50;1.00;;;;;;5078174;28;20060;-80
2023/10/13 13:59:19;;;;;;;3.05;0.93;;;22.30;1.00;;;;;;5078892;28;20044;-80
2023/10/13 14:01:47;;;;;;;2.38;1.08;;;22.10;1.00;;;;;;5074974;28;20043;-80
2023/10/13 14:04:17;;;;;;;2.28;0.90;;;22.00;1.00;;;;;;5089979;28;20201;-80
2023/10/13 14:06:44;;;;;;;2.22;1.13;;;22.00;1.00;;;;;;5106859;28;20510;-80
2023/10/13 14:09:15;;;;;;;2.78;1.00;;;22.20;1.00;;;;;;5069412;28;20076;-80
2023/10/13 14:17:06;;;;;;;3.25;1.17;;;21.80;1.00;;;;;;5076101;28;20090;-81
2023/10/13 14:19:34;;;;;;;3.45;1.00;;;21.50;1.00;;;;;;5079597;28;20051;-81
2023/10/13 14:22:06;;;;;;;2.50;1.17;;;21.30;1.00;;;;;;5078338;28;20048;-80
2023/10/13 14:24:35;;;;;;;1.87;0.80;;;21.10;1.00;;;;;;5086519;28;20087;-81
2023/10/13 14:27:09;;;;;;;4.15;1.40;;;21.10;1.00;;;;;;5082595;28;20051;-80
2023/10/13 14:29:45;;;;;;;2.38;0.80;;;21.00;1.00;;;;;;5068959;28;20523;-81
2023/10/13 14:32:15;;;;;;;1.80;0.93;;;20.90;1.00;;;;;;5071091;28;20094;-80
2023/10/13 14:34:44;;;;;;;1.70;0.73;;;20.90;1.00;;;;;;5096598;28;20460;-81
2023/10/13 14:37:12;;;;;;;1.88;0.80;;;20.90;1.00;;;;;;5104488;28;20060;-81
2023/10/13 14:39:40;;;;;;;2.92;1.10;;;21.00;1.00;;;;;;5084362;28;20223;-81
2023/10/13 14:42:06;;;;;;;1.60;0.70;;;21.00;1.00;;;;;;5068786;28;20102;-81
2023/10/13 14:44:34;;;;;;;1.52;0.80;;;21.00;1.00;;;;;;5103058;28;20056;-81
2023/10/13 14:47:01;;;;;;;1.08;0.80;;;21.20;1.00;;;;;;5090095;28;20925;-82
2023/10/13 14:49:28;;;;;;;1.05;0.68;;;22.20;1.00;;;;;;5096749;28;20040;-83
2023/10/13 14:51:55;;;;;;;3.30;1.23;;;22.90;1.00;;;;;;5073055;28;20131;-82
2023/10/13 14:54:32;;;;;;;1.90;1.15;;;23.50;1.00;;;;;;5061907;28;20530;-82
2023/10/13 14:57:03;;;;;;;4.03;1.38;;;24.00;1.00;;;;;;5064315;28;20047;-82
2023/10/13 14:59:33;;;;;;;2.53;0.95;;;24.20;1.00;;;;;;5089264;28;20598;-83
2023/10/13 15:02:01;;;;;;;1.55;0.82;;;24.40;1.00;;;;;;5077522;28;20044;-83
2023/10/13 15:04:32;;;;;;;1.80;0.90;;;24.40;1.00;;;;;;5071358;28;20317;-82
2023/10/13 15:07:03;;;;;;;1.38;0.60;;;24.20;1.00;;;;;;5067955;28;20048;-82
2023/10/13 15:09:30;;;;;;;1.70;0.82;;;24.30;1.00;;;;;;5092807;28;20051;-83
2023/10/13 15:11:57;;;;;;;1.67;0.85;;;23.90;1.00;;;;;;5065533;28;20132;-83
2023/10/13 15:14:24;;;;;;;2.63;1.00;;;23.50;1.00;;;;;;5063171;28;20436;-83
2023/10/13 15:16:55;;;;;;;2.15;1.10;;;23.20;1.00;;;;;;5080698;28;20052;-83
2023/10/13 15:19:23;;;;;;;2.20;1.20;;;23.80;1.00;;;;;;5089009;28;20052;-83
2023/10/13 15:21:50;;;;;;;1.30;0.70;;;24.10;1.00;;;;;;5079459;28;20286;-84
2023/10/13 15:24:17;;;;;;;1.55;0.93;;;23.50;1.00;;;;;;5095354;28;20495;-83
2023/10/13 15:26:57;;;;;;;2.13;1.00;;;23.30;1.00;;;;;;5083383;28;20495;-83
2023/10/13 15:29:30;;;;;;;1.70;0.75;;;23.50;1.00;;;;;;5066670;28;20060;-83
2023/10/13 15:34:30;;;;;;;0.65;0.60;;;24.20;1.00;;;;;;5082334;28;20533;-81
2023/10/13 15:36:59;;;;;;;1.00;0.63;;;24.80;1.00;;;;;;5079924;28;20052;-82
2023/10/13 15:39:31;;;;;;;2.08;0.98;;;24.70;1.00;;;;;;5071055;28;20454;-81
2023/10/13 15:41:58;;;;;;;0.80;0.60;;;24.60;1.00;;;;;;5066891;28;20078;-82
2023/10/13 15:44:25;;;;;;;2.00;0.90;;;24.30;1.00;;;;;;5082162;28;20136;-81
2023/10/13 15:46:53;;;;;;;3.53;0.80;;;24.40;1.00;;;;;;5065995;28;20426;-82
2023/10/13 15:49:23;;;;;;;1.15;0.80;;;24.60;1.00;;;;;;5082405;28;20052;-81
2023/10/13 15:51:50;;;;;;;1.05;0.73;;;24.90;1.00;;;;;;5061823;28;20058;-82
2023/10/13 15:54:17;;;;;;;1.85;0.70;;;24.60;1.00;;;;;;5084780;28;20112;-82
2023/10/13 15:56:46;;;;;;;1.42;0.68;;;24.10;1.00;;;;;;5078123;28;20575;-81
2023/10/13 15:59:12;;;;;;;2.78;1.08;;;23.60;1.00;;;;;;5090184;28;20055;-82
2023/10/13 16:01:40;;;;;;;1.02;0.80;;;23.30;1.00;;;;;;5071647;28;20505;-82
2023/10/13 16:04:10;;;;;;;1.40;0.70;;;23.40;1.00;;;;;;5076636;28;20105;-82
2023/10/13 16:06:41;;;;;;;1.55;0.85;;;23.30;1.00;;;;;;5064327;28;20074;-81
2023/10/13 16:09:13;;;;;;;2.88;1.10;;;23.20;1.00;;;;;;5085618;28;20602;-84
2023/10/13 16:11:44;;;;;;;1.88;0.90;;;22.60;1.00;;;;;;5081118;28;20423;-83
2023/10/13 16:14:15;;;;;;;4.38;0.95;;;22.00;1.00;;;;;;5099108;28;20318;-83
2023/10/13 16:16:49;;;;;;;2.50;1.20;;;21.50;1.00;;;;;;5063066;28;20059;-82
2023/10/13 16:19:23;;;;;;;1.45;0.77;;;21.20;1.00;;;;;;5085091;28;20233;-82
2023/10/13 16:21:51;;;;;;;2.47;0.98;;;20.90;1.00;;;;;;5064087;28;20554;-82
2023/10/13 16:24:18;;;;;;;2.50;1.10;;;20.70;1.00;;;;;;5093853;28;20286;-82
2023/10/13 16:26:49;;;;;;;0.90;0.50;;;20.60;1.00;;;;;;5084287;28;20120;-82
2023/10/13 16:29:16;;;;;;;2.20;0.80;;;20.60;1.00;;;;;;5077403;28;20051;-83
2023/10/13 16:31:46;;;;;;;1.25;0.63;;;20.50;1.00;;;;;;5065573;28;20206;-84
2023/10/13 16:34:15;;;;;;;1.98;0.90;;;20.30;1.00;;;;;;5066219;28;20063;-83
2023/10/13 16:36:44;;;;;;;2.80;0.88;;;20.20;1.00;;;;;;5099195;28;20055;-83
2023/10/13 16:39:11;;;;;;;1.75;0.57;;;20.10;1.00;;;;;;5064818;28;20058;-81
2023/10/13 16:41:38;;;;;;;1.35;0.50;;;20.00;1.00;;;;;;5080895;28;20152;-83
2023/10/13 16:44:09;;;;;;;1.75;0.50;;;20.00;1.00;;;;;;5098063;28;20095;-84
2023/10/13 16:46:36;;;;;;;1.60;0.77;;;19.80;1.00;;;;;;5062534;28;20177;-84
2023/10/13 16:49:04;;;;;;;2.78;1.13;;;19.60;1.00;;;;;;5086769;28;20296;-84
2023/10/13 16:51:31;;;;;;;2.25;0.88;;;19.60;1.00;;;;;;5046698;28;20403;-84
2023/10/13 16:53:58;;;;;;;2.10;0.77;;;19.50;1.00;;;;;;5080747;28;20067;-83